sensor_id;sensor_type;location;lat;lon;timestamp;P1;durP1;ratioP1;P2;durP2;ratioP2
58657;SDS011;44428;45.630;13.786;2023-02-23T00:01:20;67.97;;;43.47;;
58657;SDS011;44428;45.630;13.786;2023-02-23T00:03:52;68.10;;;44.50;;
58657;SDS011;44428;45.630;13.786;2023-02-23T00:06:21;67.40;;;44.60;;
58657;SDS011;44428;45.630;13.786;2023-02-23T00:08:49;69.93;;;45.75;;
58657;SDS011;44428;45.630;13.786;2023-02-23T00:11:16;70.80;;;45.42;;
58657;SDS011;44428;45.630;13.786;2023-02-23T00:13:44;71.20;;;44.58;;
58657;SDS011;44428;45.630;13.786;2023-02-23T00:16:15;75.30;;;46.60;;
58657;SDS011;44428;45.630;13.786;2023-02-23T00:18:45;68.35;;;43.55;;
58657;SDS011;44428;45.630;13.786;2023-02-23T00:21:25;68.38;;;44.45;;
58657;SDS011;44428;45.630;13.786;2023-02-23T00:23:55;67.65;;;42.65;;
58657;SDS011;44428;45.630;13.786;2023-02-23T00:26:26;67.65;;;45.53;;
58657;SDS011;44428;45.630;13.786;2023-02-23T00:29:00;72.90;;;46.22;;
58657;SDS011;44428;45.630;13.786;2023-02-23T00:31:28;67.82;;;45.33;;
58657;SDS011;44428;45.630;13.786;2023-02-23T00:33:55;68.72;;;44.78;;
58657;SDS011;44428;45.630;13.786;2023-02-23T00:36:24;69.05;;;44.50;;
58657;SDS011;44428;45.630;13.786;2023-02-23T00:38:53;65.30;;;44.05;;
58657;SDS011;44428;45.630;13.786;2023-02-23T00:41:21;67.93;;;45.20;;
58657;SDS011;44428;45.630;13.786;2023-02-23T00:43:53;73.60;;;46.00;;
58657;SDS011;44428;45.630;13.786;2023-02-23T00:46:23;73.82;;;46.38;;
58657;SDS011;44428;45.630;13.786;2023-02-23T00:48:54;75.65;;;46.85;;
58657;SDS011;44428;45.630;13.786;2023-02-23T00:51:23;75.40;;;48.28;;
58657;SDS011;44428;45.630;13.786;2023-02-23T00:53:56;80.38;;;47.03;;
58657;SDS011;44428;45.630;13.786;2023-02-23T00:56:24;73.75;;;47.65;;
58657;SDS011;44428;45.630;13.786;2023-02-23T00:58:51;69.82;;;46.05;;
58657;SDS011;44428;45.630;13.786;2023-02-23T01:01:17;80.22;;;48.03;;
58657;SDS011;44428;45.630;13.786;2023-02-23T01:03:43;76.78;;;47.33;;
58657;SDS011;44428;45.630;13.786;2023-02-23T01:06:11;73.90;;;46.70;;
58657;SDS011;44428;45.630;13.786;2023-02-23T01:08:43;80.28;;;49.10;;
58657;SDS011;44428;45.630;13.786;2023-02-23T01:11:14;73.43;;;46.42;;
58657;SDS011;44428;45.630;13.786;2023-02-23T01:13:43;81.25;;;47.15;;
58657;SDS011;44428;45.630;13.786;2023-02-23T01:16:13;72.32;;;45.58;;
58657;SDS011;44428;45.630;13.786;2023-02-23T01:18:41;77.95;;;46.72;;
58657;SDS011;44428;45.630;13.786;2023-02-23T01:21:15;72.97;;;46.55;;
58657;SDS011;44428;45.630;13.786;2023-02-23T01:24:01;73.32;;;46.30;;
58657;SDS011;44428;45.630;13.786;2023-02-23T01:26:28;77.25;;;46.95;;
58657;SDS011;44428;45.630;13.786;2023-02-23T01:28:58;73.65;;;46.90;;
58657;SDS011;44428;45.630;13.786;2023-02-23T01:31:27;77.57;;;44.33;;
58657;SDS011;44428;45.630;13.786;2023-02-23T01:33:59;71.65;;;45.67;;
58657;SDS011;44428;45.630;13.786;2023-02-23T01:36:28;76.07;;;47.08;;
58657;SDS011;44428;45.630;13.786;2023-02-23T01:41:26;74.20;;;46.97;;
58657;SDS011;44428;45.630;13.786;2023-02-23T01:44:00;74.65;;;48.13;;
58657;SDS011;44428;45.630;13.786;2023-02-23T01:46:54;73.57;;;46.38;;
58657;SDS011;44428;45.630;13.786;2023-02-23T01:49:24;76.28;;;48.42;;
58657;SDS011;44428;45.630;13.786;2023-02-23T01:52:01;78.15;;;47.75;;
58657;SDS011;44428;45.630;13.786;2023-02-23T01:54:32;72.28;;;45.92;;
58657;SDS011;44428;45.630;13.786;2023-02-23T01:57:04;75.30;;;47.38;;
58657;SDS011;44428;45.630;13.786;2023-02-23T01:59:34;71.55;;;46.08;;
58657;SDS011;44428;45.630;13.786;2023-02-23T02:02:04;78.68;;;48.08;;
58657;SDS011;44428;45.630;13.786;2023-02-23T02:04:30;74.68;;;45.95;;
58657;SDS011;44428;45.630;13.786;2023-02-23T02:07:12;81.32;;;48.35;;
58657;SDS011;44428;45.630;13.786;2023-02-23T02:09:46;76.57;;;48.28;;
58657;SDS011;44428;45.630;13.786;2023-02-23T02:12:34;74.78;;;47.70;;
58657;SDS011;44428;45.630;13.786;2023-02-23T02:15:00;72.85;;;46.22;;
58657;SDS011;44428;45.630;13.786;2023-02-23T02:17:35;83.30;;;48.60;;
58657;SDS011;44428;45.630;13.786;2023-02-23T02:54:09;87.85;;;52.38;;
58657;SDS011;44428;45.630;13.786;2023-02-23T02:56:45;88.03;;;52.05;;
58657;SDS011;44428;45.630;13.786;2023-02-23T02:59:14;91.07;;;52.10;;
58657;SDS011;44428;45.630;13.786;2023-02-23T03:02:02;90.82;;;52.28;;
58657;SDS011;44428;45.630;13.786;2023-02-23T03:04:48;93.03;;;54.20;;
58657;SDS011;44428;45.630;13.786;2023-02-23T03:07:51;88.68;;;52.88;;
58657;SDS011;44428;45.630;13.786;2023-02-23T03:10:54;93.80;;;52.92;;
58657;SDS011;44428;45.630;13.786;2023-02-23T03:19:44;94.10;;;52.03;;
58657;SDS011;44428;45.630;13.786;2023-02-23T03:22:34;93.93;;;53.20;;
58657;SDS011;44428;45.630;13.786;2023-02-23T03:25:28;90.40;;;52.42;;
58657;SDS011;44428;45.630;13.786;2023-02-23T03:28:26;92.32;;;52.90;;
58657;SDS011;44428;45.630;13.786;2023-02-23T03:37:47;96.20;;;53.85;;
58657;SDS011;44428;45.630;13.786;2023-02-23T03:40:40;97.13;;;53.58;;
58657;SDS011;44428;45.630;13.786;2023-02-23T03:43:29;92.45;;;53.80;;
58657;SDS011;44428;45.630;13.786;2023-02-23T03:46:17;100.25;;;53.13;;
58657;SDS011;44428;45.630;13.786;2023-02-23T03:49:06;91.35;;;55.22;;
58657;SDS011;44428;45.630;13.786;2023-02-23T03:51:58;96.55;;;55.58;;
58657;SDS011;44428;45.630;13.786;2023-02-23T03:54:51;93.45;;;53.38;;
58657;SDS011;44428;45.630;13.786;2023-02-23T03:57:41;90.95;;;54.60;;
58657;SDS011;44428;45.630;13.786;2023-02-23T04:00:30;94.70;;;55.03;;
58657;SDS011;44428;45.630;13.786;2023-02-23T04:03:19;92.82;;;52.70;;
58657;SDS011;44428;45.630;13.786;2023-02-23T04:06:06;85.97;;;51.53;;
58657;SDS011;44428;45.630;13.786;2023-02-23T04:08:55;83.20;;;50.78;;
58657;SDS011;44428;45.630;13.786;2023-02-23T04:11:45;79.47;;;48.95;;
58657;SDS011;44428;45.630;13.786;2023-02-23T04:14:38;80.75;;;48.13;;
58657;SDS011;44428;45.630;13.786;2023-02-23T04:17:07;81.05;;;49.00;;
58657;SDS011;44428;45.630;13.786;2023-02-23T04:19:34;80.50;;;45.53;;
58657;SDS011;44428;45.630;13.786;2023-02-23T04:22:00;76.47;;;47.08;;
58657;SDS011;44428;45.630;13.786;2023-02-23T04:24:27;79.40;;;45.35;;
58657;SDS011;44428;45.630;13.786;2023-02-23T04:26:53;78.70;;;48.72;;
58657;SDS011;44428;45.630;13.786;2023-02-23T04:29:19;76.75;;;47.65;;
58657;SDS011;44428;45.630;13.786;2023-02-23T04:31:45;74.40;;;46.13;;
58657;SDS011;44428;45.630;13.786;2023-02-23T04:34:13;72.75;;;46.35;;
58657;SDS011;44428;45.630;13.786;2023-02-23T04:36:39;73.95;;;45.72;;
58657;SDS011;44428;45.630;13.786;2023-02-23T04:39:05;71.72;;;45.05;;
58657;SDS011;44428;45.630;13.786;2023-02-23T04:41:31;71.07;;;45.88;;
58657;SDS011;44428;45.630;13.786;2023-02-23T04:43:57;78.68;;;49.95;;
58657;SDS011;44428;45.630;13.786;2023-02-23T04:46:23;73.82;;;46.30;;
58657;SDS011;44428;45.630;13.786;2023-02-23T04:48:49;75.78;;;45.75;;
58657;SDS011;44428;45.630;13.786;2023-02-23T04:51:15;68.55;;;46.50;;
58657;SDS011;44428;45.630;13.786;2023-02-23T04:53:41;73.57;;;45.90;;
58657;SDS011;44428;45.630;13.786;2023-02-23T04:56:08;75.15;;;46.28;;
58657;SDS011;44428;45.630;13.786;2023-02-23T04:58:35;80.60;;;46.30;;
58657;SDS011;44428;45.630;13.786;2023-02-23T05:01:04;77.43;;;48.13;;
58657;SDS011;44428;45.630;13.786;2023-02-23T05:03:32;73.28;;;46.13;;
58657;SDS011;44428;45.630;13.786;2023-02-23T05:05:58;70.82;;;45.45;;
58657;SDS011;44428;45.630;13.786;2023-02-23T05:08:24;73.88;;;46.45;;
58657;SDS011;44428;45.630;13.786;2023-02-23T05:10:50;75.68;;;46.25;;
58657;SDS011;44428;45.630;13.786;2023-02-23T05:13:15;78.25;;;48.13;;
58657;SDS011;44428;45.630;13.786;2023-02-23T05:15:41;84.05;;;47.63;;
58657;SDS011;44428;45.630;13.786;2023-02-23T05:18:07;78.57;;;48.10;;
58657;SDS011;44428;45.630;13.786;2023-02-23T05:20:35;78.38;;;45.90;;
58657;SDS011;44428;45.630;13.786;2023-02-23T05:23:01;73.85;;;46.25;;
58657;SDS011;44428;45.630;13.786;2023-02-23T05:25:27;78.10;;;49.70;;
58657;SDS011;44428;45.630;13.786;2023-02-23T05:27:53;71.88;;;44.45;;
58657;SDS011;44428;45.630;13.786;2023-02-23T05:30:19;70.15;;;44.60;;
58657;SDS011;44428;45.630;13.786;2023-02-23T05:32:45;67.72;;;43.40;;
58657;SDS011;44428;45.630;13.786;2023-02-23T05:35:11;67.38;;;41.40;;
58657;SDS011;44428;45.630;13.786;2023-02-23T05:37:37;74.20;;;44.45;;
58657;SDS011;44428;45.630;13.786;2023-02-23T05:40:04;72.25;;;45.00;;
58657;SDS011;44428;45.630;13.786;2023-02-23T05:42:31;66.65;;;44.00;;
58657;SDS011;44428;45.630;13.786;2023-02-23T05:44:57;67.60;;;44.05;;
58657;SDS011;44428;45.630;13.786;2023-02-23T05:47:22;72.25;;;45.83;;
58657;SDS011;44428;45.630;13.786;2023-02-23T05:49:48;68.95;;;44.60;;
58657;SDS011;44428;45.630;13.786;2023-02-23T05:52:14;76.90;;;45.72;;
58657;SDS011;44428;45.630;13.786;2023-02-23T05:54:40;81.65;;;48.33;;
58657;SDS011;44428;45.630;13.786;2023-02-23T05:57:06;77.75;;;43.60;;
58657;SDS011;44428;45.630;13.786;2023-02-23T05:59:32;72.40;;;45.17;;
58657;SDS011;44428;45.630;13.786;2023-02-23T06:01:58;77.25;;;44.65;;
58657;SDS011;44428;45.630;13.786;2023-02-23T06:04:24;77.53;;;45.28;;
58657;SDS011;44428;45.630;13.786;2023-02-23T06:06:50;68.88;;;43.10;;
58657;SDS011;44428;45.630;13.786;2023-02-23T06:09:16;73.07;;;43.88;;
58657;SDS011;44428;45.630;13.786;2023-02-23T06:11:42;73.47;;;45.35;;
58657;SDS011;44428;45.630;13.786;2023-02-23T06:14:09;72.35;;;44.80;;
58657;SDS011;44428;45.630;13.786;2023-02-23T06:16:35;67.00;;;44.67;;
58657;SDS011;44428;45.630;13.786;2023-02-23T06:19:01;73.38;;;44.10;;
58657;SDS011;44428;45.630;13.786;2023-02-23T06:21:26;71.88;;;43.97;;
58657;SDS011;44428;45.630;13.786;2023-02-23T06:23:53;71.97;;;43.90;;
58657;SDS011;44428;45.630;13.786;2023-02-23T06:26:19;72.13;;;41.90;;
58657;SDS011;44428;45.630;13.786;2023-02-23T06:28:45;68.20;;;41.20;;
58657;SDS011;44428;45.630;13.786;2023-02-23T06:31:11;70.57;;;40.50;;
58657;SDS011;44428;45.630;13.786;2023-02-23T06:33:37;65.75;;;40.75;;
58657;SDS011;44428;45.630;13.786;2023-02-23T06:36:03;70.38;;;44.58;;
58657;SDS011;44428;45.630;13.786;2023-02-23T06:38:29;69.35;;;45.50;;
58657;SDS011;44428;45.630;13.786;2023-02-23T06:40:55;71.60;;;43.83;;
58657;SDS011;44428;45.630;13.786;2023-02-23T06:43:21;70.75;;;42.58;;
58657;SDS011;44428;45.630;13.786;2023-02-23T06:45:47;67.63;;;41.13;;
58657;SDS011;44428;45.630;13.786;2023-02-23T06:48:14;67.28;;;42.00;;
58657;SDS011;44428;45.630;13.786;2023-02-23T06:50:40;69.80;;;43.03;;
58657;SDS011;44428;45.630;13.786;2023-02-23T06:53:06;64.28;;;41.97;;
58657;SDS011;44428;45.630;13.786;2023-02-23T06:55:32;67.43;;;42.08;;
58657;SDS011;44428;45.630;13.786;2023-02-23T06:57:58;71.53;;;41.22;;
58657;SDS011;44428;45.630;13.786;2023-02-23T07:00:25;58.40;;;38.88;;
58657;SDS011;44428;45.630;13.786;2023-02-23T07:02:50;58.28;;;37.92;;
58657;SDS011;44428;45.630;13.786;2023-02-23T07:05:17;57.75;;;35.92;;
58657;SDS011;44428;45.630;13.786;2023-02-23T07:07:43;64.28;;;38.85;;
58657;SDS011;44428;45.630;13.786;2023-02-23T07:10:10;74.10;;;39.67;;
58657;SDS011;44428;45.630;13.786;2023-02-23T07:12:36;69.53;;;39.38;;
58657;SDS011;44428;45.630;13.786;2023-02-23T07:15:03;75.18;;;39.85;;
58657;SDS011;44428;45.630;13.786;2023-02-23T07:17:29;89.05;;;37.50;;
58657;SDS011;44428;45.630;13.786;2023-02-23T07:19:55;83.78;;;37.45;;
58657;SDS011;44428;45.630;13.786;2023-02-23T07:22:21;92.95;;;38.88;;
58657;SDS011;44428;45.630;13.786;2023-02-23T07:24:49;69.75;;;37.42;;
58657;SDS011;44428;45.630;13.786;2023-02-23T07:27:15;66.20;;;37.92;;
58657;SDS011;44428;45.630;13.786;2023-02-23T07:29:41;74.32;;;36.53;;
58657;SDS011;44428;45.630;13.786;2023-02-23T07:32:07;70.70;;;38.75;;
58657;SDS011;44428;45.630;13.786;2023-02-23T07:34:33;72.47;;;40.08;;
58657;SDS011;44428;45.630;13.786;2023-02-23T07:36:59;76.95;;;43.13;;
58657;SDS011;44428;45.630;13.786;2023-02-23T07:39:27;83.80;;;45.25;;
58657;SDS011;44428;45.630;13.786;2023-02-23T07:41:53;81.40;;;46.20;;
58657;SDS011;44428;45.630;13.786;2023-02-23T07:44:20;85.47;;;48.75;;
58657;SDS011;44428;45.630;13.786;2023-02-23T07:46:46;86.95;;;46.67;;
58657;SDS011;44428;45.630;13.786;2023-02-23T07:49:12;82.00;;;47.00;;
58657;SDS011;44428;45.630;13.786;2023-02-23T07:51:38;80.07;;;46.70;;
58657;SDS011;44428;45.630;13.786;2023-02-23T07:54:05;93.53;;;46.30;;
58657;SDS011;44428;45.630;13.786;2023-02-23T07:56:31;87.15;;;46.58;;
58657;SDS011;44428;45.630;13.786;2023-02-23T07:58:58;95.95;;;46.38;;
58657;SDS011;44428;45.630;13.786;2023-02-23T08:01:24;87.18;;;44.90;;
58657;SDS011;44428;45.630;13.786;2023-02-23T08:03:49;88.82;;;46.35;;
58657;SDS011;44428;45.630;13.786;2023-02-23T08:06:16;74.28;;;45.97;;
58657;SDS011;44428;45.630;13.786;2023-02-23T08:08:43;81.72;;;46.03;;
58657;SDS011;44428;45.630;13.786;2023-02-23T08:11:10;79.68;;;44.63;;
58657;SDS011;44428;45.630;13.786;2023-02-23T08:13:36;77.65;;;45.50;;
58657;SDS011;44428;45.630;13.786;2023-02-23T08:16:03;79.63;;;46.22;;
58657;SDS011;44428;45.630;13.786;2023-02-23T08:18:29;81.68;;;46.17;;
58657;SDS011;44428;45.630;13.786;2023-02-23T08:20:59;78.22;;;45.05;;
58657;SDS011;44428;45.630;13.786;2023-02-23T08:23:30;81.50;;;47.67;;
58657;SDS011;44428;45.630;13.786;2023-02-23T08:25:58;77.93;;;44.50;;
58657;SDS011;44428;45.630;13.786;2023-02-23T08:28:25;76.60;;;49.63;;
58657;SDS011;44428;45.630;13.786;2023-02-23T08:30:53;74.18;;;46.03;;
58657;SDS011;44428;45.630;13.786;2023-02-23T08:33:20;83.75;;;46.72;;
58657;SDS011;44428;45.630;13.786;2023-02-23T08:35:46;70.85;;;43.78;;
58657;SDS011;44428;45.630;13.786;2023-02-23T08:38:12;72.60;;;46.08;;
58657;SDS011;44428;45.630;13.786;2023-02-23T08:40:38;77.95;;;46.47;;
58657;SDS011;44428;45.630;13.786;2023-02-23T08:43:04;82.47;;;46.55;;
58657;SDS011;44428;45.630;13.786;2023-02-23T08:45:30;77.95;;;46.25;;
58657;SDS011;44428;45.630;13.786;2023-02-23T08:47:56;78.43;;;47.88;;
58657;SDS011;44428;45.630;13.786;2023-02-23T08:50:22;74.18;;;46.17;;
58657;SDS011;44428;45.630;13.786;2023-02-23T08:52:48;76.05;;;46.20;;
58657;SDS011;44428;45.630;13.786;2023-02-23T08:55:14;76.60;;;45.38;;
58657;SDS011;44428;45.630;13.786;2023-02-23T08:57:42;71.57;;;45.08;;
58657;SDS011;44428;45.630;13.786;2023-02-23T09:00:09;77.38;;;45.10;;
58657;SDS011;44428;45.630;13.786;2023-02-23T09:02:42;73.20;;;42.35;;
58657;SDS011;44428;45.630;13.786;2023-02-23T09:05:10;69.93;;;42.33;;
58657;SDS011;44428;45.630;13.786;2023-02-23T09:07:37;70.15;;;43.97;;
58657;SDS011;44428;45.630;13.786;2023-02-23T09:10:04;64.65;;;40.55;;
58657;SDS011;44428;45.630;13.786;2023-02-23T09:12:30;65.45;;;38.85;;
58657;SDS011;44428;45.630;13.786;2023-02-23T09:14:56;63.38;;;38.25;;
58657;SDS011;44428;45.630;13.786;2023-02-23T09:17:22;68.05;;;39.90;;
58657;SDS011;44428;45.630;13.786;2023-02-23T09:19:48;65.13;;;38.90;;
58657;SDS011;44428;45.630;13.786;2023-02-23T09:22:15;59.85;;;38.13;;
58657;SDS011;44428;45.630;13.786;2023-02-23T09:24:43;71.45;;;41.22;;
58657;SDS011;44428;45.630;13.786;2023-02-23T09:27:09;67.78;;;40.47;;
58657;SDS011;44428;45.630;13.786;2023-02-23T09:29:37;74.68;;;44.67;;
58657;SDS011;44428;45.630;13.786;2023-02-23T09:32:07;78.38;;;45.38;;
58657;SDS011;44428;45.630;13.786;2023-02-23T09:34:34;79.72;;;45.38;;
58657;SDS011;44428;45.630;13.786;2023-02-23T09:37:03;80.60;;;46.65;;
58657;SDS011;44428;45.630;13.786;2023-02-23T09:39:30;80.10;;;46.55;;
58657;SDS011;44428;45.630;13.786;2023-02-23T09:42:08;75.38;;;45.08;;
58657;SDS011;44428;45.630;13.786;2023-02-23T09:48:07;82.25;;;44.78;;
58657;SDS011;44428;45.630;13.786;2023-02-23T09:50:34;77.88;;;46.40;;
58657;SDS011;44428;45.630;13.786;2023-02-23T09:53:04;82.03;;;49.88;;
58657;SDS011;44428;45.630;13.786;2023-02-23T09:55:37;77.97;;;47.97;;
58657;SDS011;44428;45.630;13.786;2023-02-23T09:58:05;80.13;;;46.83;;
58657;SDS011;44428;45.630;13.786;2023-02-23T10:00:41;76.90;;;46.70;;
58657;SDS011;44428;45.630;13.786;2023-02-23T10:06:03;76.68;;;45.47;;
58657;SDS011;44428;45.630;13.786;2023-02-23T10:11:27;76.90;;;44.65;;
58657;SDS011;44428;45.630;13.786;2023-02-23T10:16:44;71.60;;;44.10;;
58657;SDS011;44428;45.630;13.786;2023-02-23T10:22:13;78.40;;;49.15;;
58657;SDS011;44428;45.630;13.786;2023-02-23T10:24:42;73.28;;;46.63;;
58657;SDS011;44428;45.630;13.786;2023-02-23T10:27:21;74.18;;;46.22;;
58657;SDS011;44428;45.630;13.786;2023-02-23T10:29:54;81.93;;;44.80;;
58657;SDS011;44428;45.630;13.786;2023-02-23T10:32:36;77.35;;;46.47;;
58657;SDS011;44428;45.630;13.786;2023-02-23T10:35:11;73.40;;;46.03;;
58657;SDS011;44428;45.630;13.786;2023-02-23T10:37:41;74.43;;;45.75;;
58657;SDS011;44428;45.630;13.786;2023-02-23T10:40:30;69.53;;;44.80;;
58657;SDS011;44428;45.630;13.786;2023-02-23T10:42:58;72.93;;;45.50;;
58657;SDS011;44428;45.630;13.786;2023-02-23T10:45:27;69.70;;;47.27;;
58657;SDS011;44428;45.630;13.786;2023-02-23T10:47:56;82.28;;;47.70;;
58657;SDS011;44428;45.630;13.786;2023-02-23T10:50:27;71.20;;;48.03;;
58657;SDS011;44428;45.630;13.786;2023-02-23T10:53:15;71.13;;;50.33;;
58657;SDS011;44428;45.630;13.786;2023-02-23T10:58:44;74.85;;;48.97;;
58657;SDS011;44428;45.630;13.786;2023-02-23T11:01:16;77.75;;;49.08;;
58657;SDS011;44428;45.630;13.786;2023-02-23T11:04:48;78.07;;;46.55;;
58657;SDS011;44428;45.630;13.786;2023-02-23T11:07:28;73.63;;;47.17;;
58657;SDS011;44428;45.630;13.786;2023-02-23T11:09:54;75.30;;;47.30;;
58657;SDS011;44428;45.630;13.786;2023-02-23T11:12:22;75.25;;;49.42;;
58657;SDS011;44428;45.630;13.786;2023-02-23T11:14:53;72.38;;;46.75;;
58657;SDS011;44428;45.630;13.786;2023-02-23T11:20:03;75.15;;;47.38;;
58657;SDS011;44428;45.630;13.786;2023-02-23T11:22:45;74.60;;;47.03;;
58657;SDS011;44428;45.630;13.786;2023-02-23T11:25:14;76.95;;;46.30;;
58657;SDS011;44428;45.630;13.786;2023-02-23T11:27:47;73.50;;;45.08;;
58657;SDS011;44428;45.630;13.786;2023-02-23T11:30:18;69.53;;;45.55;;
58657;SDS011;44428;45.630;13.786;2023-02-23T11:32:52;63.03;;;42.42;;
58657;SDS011;44428;45.630;13.786;2023-02-23T11:37:48;63.55;;;40.72;;
58657;SDS011;44428;45.630;13.786;2023-02-23T11:40:21;67.40;;;43.22;;
58657;SDS011;44428;45.630;13.786;2023-02-23T11:48:15;64.93;;;42.50;;
58657;SDS011;44428;45.630;13.786;2023-02-23T11:51:07;62.78;;;41.17;;
58657;SDS011;44428;45.630;13.786;2023-02-23T11:53:38;61.42;;;42.92;;
58657;SDS011;44428;45.630;13.786;2023-02-23T11:56:09;67.15;;;41.30;;
58657;SDS011;44428;45.630;13.786;2023-02-23T11:58:37;60.53;;;41.03;;
58657;SDS011;44428;45.630;13.786;2023-02-23T12:01:08;62.60;;;41.08;;
58657;SDS011;44428;45.630;13.786;2023-02-23T12:06:10;61.33;;;40.67;;
58657;SDS011;44428;45.630;13.786;2023-02-23T12:08:41;67.28;;;40.47;;
58657;SDS011;44428;45.630;13.786;2023-02-23T12:11:16;64.78;;;39.55;;
58657;SDS011;44428;45.630;13.786;2023-02-23T12:13:47;61.08;;;37.92;;
58657;SDS011;44428;45.630;13.786;2023-02-23T12:16:36;61.95;;;40.97;;
58657;SDS011;44428;45.630;13.786;2023-02-23T12:19:24;65.57;;;42.38;;
58657;SDS011;44428;45.630;13.786;2023-02-23T12:22:14;62.30;;;41.20;;
58657;SDS011;44428;45.630;13.786;2023-02-23T12:24:55;64.90;;;43.10;;
58657;SDS011;44428;45.630;13.786;2023-02-23T12:27:43;65.68;;;42.67;;
58657;SDS011;44428;45.630;13.786;2023-02-23T12:35:44;71.38;;;44.35;;
58657;SDS011;44428;45.630;13.786;2023-02-23T12:41:11;70.75;;;47.38;;
58657;SDS011;44428;45.630;13.786;2023-02-23T12:43:50;73.88;;;47.72;;
58657;SDS011;44428;45.630;13.786;2023-02-23T12:46:41;71.88;;;45.53;;
58657;SDS011;44428;45.630;13.786;2023-02-23T12:49:18;73.82;;;46.50;;
58657;SDS011;44428;45.630;13.786;2023-02-23T12:52:06;75.53;;;44.72;;
58657;SDS011;44428;45.630;13.786;2023-02-23T12:54:39;64.15;;;41.50;;
58657;SDS011;44428;45.630;13.786;2023-02-23T12:57:15;65.85;;;42.47;;
58657;SDS011;44428;45.630;13.786;2023-02-23T13:00:12;60.50;;;42.15;;
58657;SDS011;44428;45.630;13.786;2023-02-23T13:02:51;66.88;;;42.97;;
58657;SDS011;44428;45.630;13.786;2023-02-23T13:07:59;53.35;;;36.08;;
58657;SDS011;44428;45.630;13.786;2023-02-23T13:13:36;45.88;;;30.33;;
58657;SDS011;44428;45.630;13.786;2023-02-23T13:16:14;45.80;;;30.85;;
58657;SDS011;44428;45.630;13.786;2023-02-23T13:19:29;44.05;;;29.33;;
58657;SDS011;44428;45.630;13.786;2023-02-23T13:24:38;37.30;;;27.75;;
58657;SDS011;44428;45.630;13.786;2023-02-23T13:27:19;36.88;;;28.52;;
58657;SDS011;44428;45.630;13.786;2023-02-23T13:29:51;41.20;;;29.10;;
58657;SDS011;44428;45.630;13.786;2023-02-23T13:32:23;43.53;;;30.15;;
58657;SDS011;44428;45.630;13.786;2023-02-23T13:34:57;40.55;;;28.70;;
58657;SDS011;44428;45.630;13.786;2023-02-23T13:37:38;43.50;;;29.45;;
58657;SDS011;44428;45.630;13.786;2023-02-23T13:43:22;42.08;;;29.35;;
58657;SDS011;44428;45.630;13.786;2023-02-23T13:56:54;41.08;;;29.40;;
58657;SDS011;44428;45.630;13.786;2023-02-23T13:59:22;46.30;;;31.08;;
58657;SDS011;44428;45.630;13.786;2023-02-23T14:05:05;42.10;;;28.33;;
58657;SDS011;44428;45.630;13.786;2023-02-23T14:07:40;39.95;;;28.77;;
58657;SDS011;44428;45.630;13.786;2023-02-23T14:15:49;39.17;;;28.17;;
58657;SDS011;44428;45.630;13.786;2023-02-23T14:19:03;44.30;;;31.85;;
58657;SDS011;44428;45.630;13.786;2023-02-23T14:24:17;39.78;;;29.00;;
58657;SDS011;44428;45.630;13.786;2023-02-23T14:29:37;45.92;;;31.33;;
58657;SDS011;44428;45.630;13.786;2023-02-23T14:34:45;48.75;;;33.28;;
58657;SDS011;44428;45.630;13.786;2023-02-23T14:40:00;46.80;;;31.63;;
58657;SDS011;44428;45.630;13.786;2023-02-23T14:42:33;48.75;;;33.78;;
58657;SDS011;44428;45.630;13.786;2023-02-23T14:45:03;49.53;;;33.67;;
58657;SDS011;44428;45.630;13.786;2023-02-23T14:47:41;46.95;;;34.50;;
58657;SDS011;44428;45.630;13.786;2023-02-23T14:50:23;48.60;;;34.40;;
58657;SDS011;44428;45.630;13.786;2023-02-23T14:52:52;47.10;;;33.38;;
58657;SDS011;44428;45.630;13.786;2023-02-23T14:55:23;49.97;;;34.75;;
58657;SDS011;44428;45.630;13.786;2023-02-23T14:57:51;48.97;;;35.83;;
58657;SDS011;44428;45.630;13.786;2023-02-23T15:00:29;50.63;;;36.35;;
58657;SDS011;44428;45.630;13.786;2023-02-23T15:03:07;52.20;;;37.90;;
58657;SDS011;44428;45.630;13.786;2023-02-23T15:05:42;60.38;;;39.95;;
58657;SDS011;44428;45.630;13.786;2023-02-23T15:08:23;54.15;;;38.10;;
58657;SDS011;44428;45.630;13.786;2023-02-23T15:10:57;65.50;;;41.00;;
58657;SDS011;44428;45.630;13.786;2023-02-23T15:13:27;62.63;;;43.20;;
58657;SDS011;44428;45.630;13.786;2023-02-23T15:15:56;59.22;;;40.80;;
58657;SDS011;44428;45.630;13.786;2023-02-23T15:18:36;57.65;;;39.55;;
58657;SDS011;44428;45.630;13.786;2023-02-23T15:21:06;59.90;;;40.03;;
58657;SDS011;44428;45.630;13.786;2023-02-23T15:23:35;58.97;;;39.72;;
58657;SDS011;44428;45.630;13.786;2023-02-23T15:26:15;60.95;;;39.38;;
58657;SDS011;44428;45.630;13.786;2023-02-23T15:28:50;62.13;;;41.42;;
58657;SDS011;44428;45.630;13.786;2023-02-23T15:31:16;64.03;;;42.30;;
58657;SDS011;44428;45.630;13.786;2023-02-23T15:33:43;62.10;;;43.08;;
58657;SDS011;44428;45.630;13.786;2023-02-23T15:36:14;62.42;;;41.63;;
58657;SDS011;44428;45.630;13.786;2023-02-23T15:38:46;60.15;;;41.85;;
58657;SDS011;44428;45.630;13.786;2023-02-23T15:46:54;62.42;;;43.45;;
58657;SDS011;44428;45.630;13.786;2023-02-23T15:49:29;74.25;;;49.00;;
58657;SDS011;44428;45.630;13.786;2023-02-23T15:51:59;73.70;;;49.60;;
58657;SDS011;44428;45.630;13.786;2023-02-23T15:54:29;77.30;;;52.03;;
58657;SDS011;44428;45.630;13.786;2023-02-23T15:57:06;78.47;;;51.58;;
58657;SDS011;44428;45.630;13.786;2023-02-23T15:59:44;77.93;;;50.58;;
58657;SDS011;44428;45.630;13.786;2023-02-23T16:02:15;74.53;;;48.40;;
58657;SDS011;44428;45.630;13.786;2023-02-23T16:04:44;75.43;;;48.20;;
58657;SDS011;44428;45.630;13.786;2023-02-23T16:09:54;74.40;;;48.65;;
58657;SDS011;44428;45.630;13.786;2023-02-23T16:12:36;76.38;;;47.25;;
58657;SDS011;44428;45.630;13.786;2023-02-23T16:15:05;73.95;;;47.85;;
58657;SDS011;44428;45.630;13.786;2023-02-23T16:17:46;67.95;;;44.30;;
58657;SDS011;44428;45.630;13.786;2023-02-23T16:23:29;70.78;;;48.90;;
58657;SDS011;44428;45.630;13.786;2023-02-23T16:26:09;71.82;;;47.80;;
58657;SDS011;44428;45.630;13.786;2023-02-23T16:28:44;72.05;;;46.75;;
58657;SDS011;44428;45.630;13.786;2023-02-23T16:31:11;76.45;;;50.50;;
58657;SDS011;44428;45.630;13.786;2023-02-23T16:33:45;78.85;;;50.47;;
58657;SDS011;44428;45.630;13.786;2023-02-23T16:36:34;79.75;;;50.83;;
58657;SDS011;44428;45.630;13.786;2023-02-23T16:39:13;84.50;;;54.38;;
58657;SDS011;44428;45.630;13.786;2023-02-23T16:41:42;81.75;;;53.28;;
58657;SDS011;44428;45.630;13.786;2023-02-23T16:44:16;91.65;;;56.45;;
58657;SDS011;44428;45.630;13.786;2023-02-23T16:49:23;86.03;;;53.47;;
58657;SDS011;44428;45.630;13.786;2023-02-23T16:51:49;79.20;;;52.63;;
58657;SDS011;44428;45.630;13.786;2023-02-23T16:54:16;61.15;;;44.33;;
58657;SDS011;44428;45.630;13.786;2023-02-23T16:56:42;56.22;;;39.58;;
58657;SDS011;44428;45.630;13.786;2023-02-23T16:59:08;57.30;;;41.28;;
58657;SDS011;44428;45.630;13.786;2023-02-23T17:01:39;66.18;;;43.60;;